Time;durP1;ratioP1;P1;durP2;ratioP2;P2;SDS_P1;SDS_P2;PMS_P1;PMS_P2;Temp;Humidity;BMP_temperature;BMP_pressure;BME280_temperature;BME280_humidity;BME280_pressure;Samples;Min_cycle;Max_cycle;Signal;HPM_P1;HPM_P2
2021/05/06 00:04:49;;;;;;;12.35;5.00;;;1.90;99.90;;;;;;5007671;28;20541;-58
2021/05/06 00:34:15;;;;;;;12.45;6.53;;;2.60;99.90;;;;;;5067827;28;20036;-56
2021/05/06 00:36:41;;;;;;;11.95;5.18;;;2.60;99.90;;;;;;5067867;28;20043;-57
2021/05/06 00:39:11;;;;;;;7.63;5.47;;;2.60;99.90;;;;;;5068337;28;20029;-49
2021/05/06 00:42:04;;;;;;;11.10;5.97;;;2.70;99.90;;;;;;5067485;28;20039;-59
2021/05/06 00:55:46;;;;;;;11.80;7.03;;;3.00;99.90;;;;;;5067909;28;20067;-59
2021/05/06 01:01:08;;;;;;;14.75;7.88;;;3.10;99.90;;;;;;5066543;28;20423;-60
2021/05/06 01:06:19;;;;;;;12.57;8.25;;;3.10;99.90;;;;;;5067310;28;20051;-54
2021/05/06 01:08:52;;;;;;;15.25;7.47;;;3.20;99.90;;;;;;5067682;28;20523;-59
2021/05/06 01:11:27;;;;;;;15.23;8.60;;;3.20;99.90;;;;;;5067185;28;20040;-58
2021/05/06 01:13:53;;;;;;;14.50;8.00;;;3.20;99.90;;;;;;5067485;28;20424;-58
2021/05/06 01:16:19;;;;;;;14.02;8.30;;;3.20;99.90;;;;;;5067570;28;20072;-56
2021/05/06 01:18:44;;;;;;;12.05;7.57;;;3.20;99.90;;;;;;5066810;28;20130;-58
2021/05/06 01:21:10;;;;;;;14.38;8.18;;;3.10;99.90;;;;;;5066292;28;20048;-56
2021/05/06 01:23:40;;;;;;;11.52;7.20;;;3.10;99.90;;;;;;5067691;28;20072;-58
2021/05/06 01:26:15;;;;;;;13.18;8.15;;;3.10;99.90;;;;;;5067182;28;20055;-60
2021/05/06 01:28:44;;;;;;;11.57;7.70;;;3.00;99.90;;;;;;5066893;28;20035;-59
2021/05/06 01:31:15;;;;;;;12.10;7.70;;;3.00;99.90;;;;;;5066203;28;20125;-53
2021/05/06 01:33:58;;;;;;;12.43;7.70;;;2.90;99.90;;;;;;5067175;28;20046;-55
2021/05/06 01:36:27;;;;;;;11.35;6.72;;;2.90;99.90;;;;;;5067232;28;20087;-56
2021/05/06 01:39:07;;;;;;;10.80;7.32;;;2.80;99.90;;;;;;5066948;28;20048;-57
2021/05/06 01:41:51;;;;;;;10.23;7.10;;;2.80;99.90;;;;;;5065267;28;20044;-54
2021/05/06 01:47:07;;;;;;;13.43;6.95;;;2.70;99.90;;;;;;5065841;28;20040;-60
2021/05/06 01:49:57;;;;;;;11.50;6.93;;;2.60;99.90;;;;;;5066681;28;20032;-59
2021/05/06 01:58:03;;;;;;;9.35;5.97;;;2.50;99.90;;;;;;5067089;28;20048;-58
2021/05/06 02:00:31;;;;;;;9.57;5.93;;;2.50;99.90;;;;;;5066171;28;20036;-55
2021/05/06 02:02:59;;;;;;;7.82;5.70;;;2.60;99.90;;;;;;5066242;28;20098;-59
2021/05/06 02:05:25;;;;;;;8.48;5.78;;;2.60;99.90;;;;;;5065892;28;20149;-55
2021/05/06 02:07:50;;;;;;;10.80;5.00;;;2.60;99.90;;;;;;5067251;28;20086;-59
2021/05/06 02:10:19;;;;;;;9.15;5.35;;;2.60;99.90;;;;;;5066009;28;20150;-56
2021/05/06 02:12:45;;;;;;;11.38;5.25;;;2.50;99.90;;;;;;5058240;28;20044;-60
2021/05/06 02:15:28;;;;;;;8.48;5.72;;;2.60;99.90;;;;;;5065194;28;20039;-48
2021/05/06 02:17:56;;;;;;;8.93;4.47;;;2.50;99.90;;;;;;5066581;28;20040;-55
2021/05/06 02:20:22;;;;;;;9.05;4.97;;;2.60;99.90;;;;;;5065441;28;20039;-60
2021/05/06 02:22:50;;;;;;;6.78;4.88;;;2.60;99.90;;;;;;5066941;28;20052;-55
2021/05/06 02:25:15;;;;;;;11.27;5.43;;;2.60;99.90;;;;;;5066657;28;20044;-60
2021/05/06 02:27:42;;;;;;;14.80;5.63;;;2.60;99.90;;;;;;5067016;28;20040;-57
2021/05/06 02:30:08;;;;;;;9.23;5.28;;;2.60;99.90;;;;;;5065323;28;20033;-55
2021/05/06 02:32:34;;;;;;;7.40;4.28;;;2.60;99.90;;;;;;5066006;28;20040;-60
2021/05/06 02:35:00;;;;;;;8.98;5.13;;;2.60;99.90;;;;;;5066257;28;20056;-60
2021/05/06 02:37:26;;;;;;;10.27;5.03;;;2.50;99.90;;;;;;5066124;28;20040;-59
2021/05/06 02:39:53;;;;;;;9.13;4.28;;;2.50;99.90;;;;;;5065583;28;20041;-54
2021/05/06 02:42:18;;;;;;;10.00;4.88;;;2.50;99.90;;;;;;5066585;28;20041;-61
2021/05/06 02:44:44;;;;;;;6.05;4.45;;;2.50;99.90;;;;;;5065073;28;20048;-59
2021/05/06 02:47:09;;;;;;;8.23;4.95;;;2.50;99.90;;;;;;5065548;28;20044;-60
2021/05/06 02:49:36;;;;;;;8.57;5.15;;;2.50;99.90;;;;;;5065867;28;20044;-60
2021/05/06 02:52:48;;;;;;;6.63;4.72;;;2.50;99.90;;;;;;5065400;28;20044;-61
2021/05/06 02:55:30;;;;;;;10.00;5.40;;;2.50;99.90;;;;;;5062294;28;20049;-55
2021/05/06 02:57:53;;;;;;;11.65;5.10;;;2.50;99.90;;;;;;5063366;28;20052;-59
2021/05/06 03:03:04;;;;;;;11.40;6.10;;;2.50;99.90;;;;;;5063295;28;20028;-58
2021/05/06 03:05:32;;;;;;;9.77;5.22;;;2.50;99.90;;;;;;5064736;28;20044;-60
2021/05/06 03:08:11;;;;;;;8.10;4.82;;;2.50;99.90;;;;;;5066807;28;20053;-58
2021/05/06 03:23:35;;;;;;;10.05;5.45;;;2.80;99.90;;;;;;5065837;28;20044;-60
2021/05/06 03:26:02;;;;;;;12.32;5.80;;;2.80;99.90;;;;;;5064409;28;20091;-59
2021/05/06 03:28:35;;;;;;;8.88;5.05;;;2.80;99.90;;;;;;5065662;28;20517;-57
2021/05/06 03:47:10;;;;;;;10.70;4.40;;;2.70;99.90;;;;;;5065550;28;20131;-58
2021/05/06 04:03:33;;;;;;;8.25;3.42;;;2.70;99.90;;;;;;5063439;28;20136;-56
2021/05/06 04:27:28;;;;;;;14.18;3.22;;;3.10;99.90;;;;;;5068594;28;20044;-60
2021/05/06 04:37:55;;;;;;;9.77;2.70;;;3.50;99.90;;;;;;5068040;28;20488;-60
2021/05/06 04:40:50;;;;;;;9.38;2.15;;;3.60;99.90;;;;;;5062687;28;20049;-61
2021/05/06 04:44:09;;;;;;;6.30;1.98;;;3.80;99.90;;;;;;5066825;28;20037;-60
2021/05/06 04:46:46;;;;;;;7.63;2.47;;;3.80;99.90;;;;;;5061540;28;20125;-58
2021/05/06 04:54:44;;;;;;;8.07;2.47;;;4.20;99.90;;;;;;5067635;28;20036;-58
2021/05/06 04:57:34;;;;;;;6.63;2.72;;;4.20;99.90;;;;;;5067011;28;20063;-57
2021/05/06 05:05:28;;;;;;;11.98;5.50;;;4.00;99.90;;;;;;5066747;28;20033;-59
2021/05/06 05:08:01;;;;;;;8.18;3.08;;;3.90;99.90;;;;;;5067204;28;20691;-59
2021/05/06 05:10:45;;;;;;;7.53;2.78;;;3.80;99.90;;;;;;5066663;28;20044;-58
2021/05/06 05:18:39;;;;;;;11.40;4.45;;;3.60;99.90;;;;;;5068118;28;20440;-58
2021/05/06 05:21:22;;;;;;;9.90;4.72;;;3.70;99.90;;;;;;5067000;28;20040;-60
2021/05/06 05:23:52;;;;;;;9.40;4.30;;;3.70;99.90;;;;;;5067591;28;20043;-59
2021/05/06 05:26:18;;;;;;;7.30;3.70;;;3.60;99.90;;;;;;5069120;28;20041;-57
2021/05/06 05:28:43;;;;;;;7.72;3.50;;;3.60;99.90;;;;;;5067610;28;20090;-59
2021/05/06 05:31:09;;;;;;;;;;;3.60;99.90;;;;;;5067303;28;20504;-61
2021/05/06 05:33:46;;;;;;;6.38;3.95;;;3.50;99.90;;;;;;5066975;28;19921;-60
2021/05/06 05:38:53;;;;;;;8.07;4.43;;;3.40;99.90;;;;;;5066484;28;20094;-57
2021/05/06 05:41:55;;;;;;;11.98;5.28;;;3.40;99.90;;;;;;5066780;28;20044;-55
2021/05/06 05:55:24;;;;;;;13.48;5.95;;;3.50;99.90;;;;;;5066762;28;20044;-60
2021/05/06 05:57:52;;;;;;;11.75;6.13;;;3.50;99.90;;;;;;5066389;28;20522;-59
2021/05/06 06:00:18;;;;;;;8.13;5.30;;;3.60;99.90;;;;;;5065706;28;20036;-59
2021/05/06 06:02:44;;;;;;;10.52;5.53;;;3.70;99.90;;;;;;5065348;28;20094;-59
2021/05/06 06:05:10;;;;;;;13.70;5.60;;;3.90;99.90;;;;;;5065889;28;20036;-59
2021/05/06 06:07:36;;;;;;;11.55;5.72;;;4.10;99.90;;;;;;5065914;28;20123;-60
2021/05/06 06:10:03;;;;;;;13.02;5.95;;;4.20;99.90;;;;;;5054299;28;20039;-59
2021/05/06 06:12:28;;;;;;;13.52;6.25;;;4.20;99.90;;;;;;5045922;28;20095;-60
2021/05/06 06:15:05;;;;;;;13.88;5.88;;;4.30;99.90;;;;;;5045118;28;20045;-58
2021/05/06 06:17:38;;;;;;;11.70;5.70;;;4.20;99.90;;;;;;5046140;28;20102;-52
2021/05/06 06:20:05;;;;;;;14.85;9.55;;;4.30;99.90;;;;;;5055937;28;20590;-58
2021/05/06 06:22:31;;;;;;;14.25;6.55;;;4.30;99.90;;;;;;5066404;28;20496;-55
2021/05/06 06:25:03;;;;;;;16.67;5.35;;;4.20;99.90;;;;;;5066534;28;20071;-56
2021/05/06 06:27:29;;;;;;;12.35;5.13;;;4.20;99.90;;;;;;5063718;28;20041;-57
2021/05/06 06:29:56;;;;;;;7.75;5.07;;;4.20;99.90;;;;;;5066968;28;20050;-55
2021/05/06 06:32:22;;;;;;;9.68;4.45;;;4.10;99.90;;;;;;5065598;28;20451;-60
2021/05/06 06:34:47;;;;;;;9.15;4.75;;;4.10;99.90;;;;;;5065695;28;20055;-59
2021/05/06 06:37:14;;;;;;;12.00;5.55;;;4.10;99.90;;;;;;5066503;28;20503;-60
2021/05/06 06:39:40;;;;;;;8.27;4.72;;;4.10;99.90;;;;;;5065597;28;20071;-59
2021/05/06 06:42:10;;;;;;;8.27;4.93;;;4.10;99.90;;;;;;5067713;28;20039;-59
2021/05/06 06:44:37;;;;;;;9.50;4.82;;;4.10;99.90;;;;;;5065564;28;20041;-60
2021/05/06 06:47:07;;;;;;;5.70;3.92;;;4.10;99.90;;;;;;5065945;28;20127;-61
2021/05/06 06:49:40;;;;;;;13.98;5.15;;;4.10;99.90;;;;;;5065725;28;20064;-60
2021/05/06 06:52:10;;;;;;;14.02;5.78;;;4.20;99.90;;;;;;5061937;28;20131;-58
2021/05/06 06:54:36;;;;;;;11.23;5.10;;;4.30;99.90;;;;;;5065546;28;20520;-60
2021/05/06 06:57:03;;;;;;;13.50;7.18;;;4.30;99.90;;;;;;5066547;28;20040;-60
2021/05/06 06:59:29;;;;;;;11.20;6.13;;;4.20;99.90;;;;;;5066251;28;20051;-57
2021/05/06 07:01:55;;;;;;;7.28;4.93;;;4.20;99.90;;;;;;5066105;28;20576;-60
2021/05/06 07:04:20;;;;;;;9.50;5.45;;;4.20;99.90;;;;;;5064294;28;20044;-56
2021/05/06 07:06:46;;;;;;;14.70;6.57;;;4.30;99.90;;;;;;5064602;28;20036;-59
2021/05/06 07:09:11;;;;;;;11.90;5.70;;;4.30;99.90;;;;;;5065193;28;20752;-60
2021/05/06 07:11:38;;;;;;;11.43;5.47;;;4.30;99.90;;;;;;5065658;28;20613;-59
2021/05/06 07:14:04;;;;;;;12.82;6.53;;;4.30;99.90;;;;;;5065480;28;20041;-60
2021/05/06 07:16:30;;;;;;;11.75;5.75;;;4.30;99.90;;;;;;5067088;28;20074;-60
2021/05/06 07:18:57;;;;;;;8.43;5.55;;;4.30;99.90;;;;;;5068101;28;20044;-58
2021/05/06 07:21:23;;;;;;;11.52;6.32;;;4.20;99.90;;;;;;5066612;28;20500;-59
2021/05/06 07:23:50;;;;;;;7.80;5.55;;;4.10;99.90;;;;;;5066218;28;20037;-57
2021/05/06 07:26:15;;;;;;;14.02;7.32;;;4.10;99.90;;;;;;5066016;28;20044;-59
2021/05/06 07:28:42;;;;;;;10.82;6.50;;;4.30;99.90;;;;;;5069228;28;20043;-61
2021/05/06 07:31:10;;;;;;;12.73;5.40;;;4.30;99.90;;;;;;5064827;28;20040;-60
2021/05/06 07:33:37;;;;;;;10.55;6.43;;;4.40;99.90;;;;;;5066350;28;20028;-58
2021/05/06 07:36:03;;;;;;;10.88;6.80;;;4.50;99.90;;;;;;5067276;28;20106;-60
2021/05/06 07:38:32;;;;;;;11.48;7.03;;;4.60;99.90;;;;;;5069097;28;20060;-59
2021/05/06 07:41:00;;;;;;;9.13;5.70;;;4.80;99.90;;;;;;5069915;28;20050;-57
2021/05/06 07:43:26;;;;;;;9.23;5.47;;;5.20;99.90;;;;;;5070872;28;20049;-60
2021/05/06 07:45:53;;;;;;;11.70;6.25;;;6.20;99.90;;;;;;5068569;28;20048;-61
2021/05/06 07:48:19;;;;;;;9.40;4.85;;;6.80;99.90;;;;;;5070969;28;20044;-60
2021/05/06 07:50:47;;;;;;;;;;;7.40;99.90;;;;;;5070604;28;20045;-61
2021/05/06 07:53:15;;;;;;;10.70;5.18;;;8.00;99.90;;;;;;5068910;28;19920;-55
2021/05/06 07:55:42;;;;;;;7.00;4.88;;;8.40;98.10;;;;;;5070717;28;20568;-57
2021/05/06 07:58:08;;;;;;;12.77;8.10;;;8.60;98.10;;;;;;5070664;28;20064;-59
2021/05/06 08:00:35;;;;;;;10.93;6.32;;;8.50;97.30;;;;;;5069719;28;20082;-59
2021/05/06 08:03:03;;;;;;;6.18;4.60;;;8.10;98.10;;;;;;5070779;28;20036;-56
2021/05/06 08:05:28;;;;;;;7.90;5.07;;;7.60;97.90;;;;;;5068370;28;20411;-60
2021/05/06 08:07:54;;;;;;;;;;;7.30;99.00;;;;;;5069842;28;20065;-61
2021/05/06 08:10:22;;;;;;;10.10;5.00;;;6.90;98.90;;;;;;5068836;28;19935;-59
2021/05/06 08:12:48;;;;;;;9.45;4.65;;;6.60;99.20;;;;;;5071343;28;20033;-61
2021/05/06 08:15:13;;;;;;;;;;;6.50;99.90;;;;;;5068435;28;20040;-56
2021/05/06 08:17:41;;;;;;;7.70;4.93;;;6.30;99.30;;;;;;5069603;28;19978;-56
2021/05/06 08:20:13;;;;;;;8.27;4.80;;;6.10;99.90;;;;;;5069041;28;20041;-59
2021/05/06 08:22:39;;;;;;;7.32;5.55;;;6.10;99.90;;;;;;5069372;28;20040;-59
2021/05/06 08:25:08;;;;;;;;;;;6.00;99.90;;;;;;5068440;28;20038;-60
2021/05/06 08:27:34;;;;;;;12.13;4.88;;;6.00;99.90;;;;;;5063961;28;19927;-57
2021/05/06 08:30:00;;;;;;;12.43;5.03;;;6.00;99.90;;;;;;5068852;28;20036;-59
2021/05/06 08:32:29;;;;;;;;;;;6.00;99.90;;;;;;5067074;28;20033;-59
2021/05/06 08:34:55;;;;;;;12.57;6.72;;;6.00;99.90;;;;;;5067054;28;19927;-60
2021/05/06 08:37:21;;;;;;;14.75;9.35;;;5.80;99.90;;;;;;5067155;28;20113;-59
2021/05/06 08:39:47;;;;;;;;;;;5.90;99.90;;;;;;5067688;28;20036;-58
2021/05/06 08:42:14;;;;;;;7.80;5.07;;;5.80;99.90;;;;;;5068475;28;19916;-59
2021/05/06 08:44:40;;;;;;;14.90;7.70;;;5.70;99.90;;;;;;5068672;28;20060;-59
2021/05/06 08:47:11;;;;;;;11.68;5.32;;;5.70;99.90;;;;;;5068445;28;20041;-60
2021/05/06 08:49:38;;;;;;;10.02;5.93;;;5.70;99.90;;;;;;5068350;28;20044;-58
2021/05/06 08:52:09;;;;;;;10.45;6.00;;;5.60;99.90;;;;;;5068908;28;20045;-59
2021/05/06 08:54:35;;;;;;;9.48;6.40;;;5.60;99.90;;;;;;5069598;28;20044;-59
2021/05/06 08:57:01;;;;;;;7.82;6.13;;;5.60;99.90;;;;;;5068330;28;20076;-57
2021/05/06 08:59:28;;;;;;;9.63;6.28;;;5.70;99.90;;;;;;5068673;28;20515;-59
2021/05/06 09:01:54;;;;;;;12.60;9.25;;;6.00;99.90;;;;;;5068513;28;20036;-59
2021/05/06 09:04:20;;;;;;;10.68;6.72;;;6.00;99.90;;;;;;5068608;28;20115;-59
2021/05/06 09:07:03;;;;;;;12.50;7.13;;;6.10;99.90;;;;;;5068448;28;20048;-60
2021/05/06 09:09:31;;;;;;;10.13;6.50;;;6.20;99.90;;;;;;5068085;28;20044;-60
2021/05/06 09:12:07;;;;;;;7.70;5.72;;;6.30;99.90;;;;;;5069525;28;20076;-60
2021/05/06 09:14:46;;;;;;;9.40;6.13;;;6.30;99.90;;;;;;5066995;28;20048;-61
2021/05/06 09:17:33;;;;;;;11.50;6.80;;;6.30;99.90;;;;;;5067672;28;20044;-61
2021/05/06 09:20:25;;;;;;;12.27;6.97;;;6.20;99.90;;;;;;5068214;28;20044;-59
2021/05/06 09:22:55;;;;;;;11.27;6.28;;;6.10;99.90;;;;;;5064990;28;20140;-60
2021/05/06 09:25:35;;;;;;;10.27;6.68;;;6.20;99.90;;;;;;5058906;28;20119;-56
2021/05/06 09:28:06;;;;;;;10.80;7.45;;;6.10;99.90;;;;;;5068423;28;20040;-61
2021/05/06 09:30:36;;;;;;;10.15;6.50;;;6.00;99.90;;;;;;5067549;28;20099;-60
2021/05/06 09:33:06;;;;;;;11.43;7.30;;;6.10;99.90;;;;;;5068068;28;20396;-57
2021/05/06 09:35:49;;;;;;;11.15;7.55;;;6.20;99.90;;;;;;5067335;28;20041;-59
2021/05/06 09:38:34;;;;;;;17.80;10.77;;;6.10;99.90;;;;;;5067920;28;20049;-60
2021/05/06 09:41:02;;;;;;;10.77;7.60;;;6.10;99.90;;;;;;5068135;28;20044;-59
2021/05/06 09:43:35;;;;;;;10.55;5.88;;;6.10;99.90;;;;;;5067192;28;20120;-57
2021/05/06 09:46:01;;;;;;;8.43;6.18;;;5.90;98.80;;;;;;5067176;28;20048;-56
2021/05/06 09:48:28;;;;;;;13.88;6.05;;;6.00;99.60;;;;;;5068292;28;20064;-60
2021/05/06 09:51:04;;;;;;;12.45;6.55;;;6.10;99.40;;;;;;5081878;28;20086;-60
2021/05/06 09:53:32;;;;;;;10.43;6.55;;;6.10;98.80;;;;;;5067537;28;20048;-60
2021/05/06 09:56:00;;;;;;;13.02;8.07;;;6.20;98.90;;;;;;5067640;28;20083;-59
2021/05/06 09:58:31;;;;;;;9.10;5.90;;;6.30;98.70;;;;;;5067581;28;20036;-58
2021/05/06 10:00:57;;;;;;;7.35;4.97;;;6.40;97.40;;;;;;5067415;28;20119;-58
2021/05/06 10:03:31;;;;;;;6.25;4.93;;;6.50;98.40;;;;;;5067267;28;20049;-60
2021/05/06 10:05:57;;;;;;;7.20;4.80;;;6.80;98.00;;;;;;5066493;28;20443;-60
2021/05/06 10:08:32;;;;;;;;;;;6.90;97.00;;;;;;5066502;28;20046;-60
2021/05/06 10:11:16;;;;;;;6.50;4.97;;;7.10;96.40;;;;;;5066805;28;19982;-59
2021/05/06 10:13:43;;;;;;;7.18;5.20;;;7.30;97.70;;;;;;5066557;28;20040;-60
2021/05/06 10:16:10;;;;;;;8.65;5.10;;;7.40;95.60;;;;;;5066088;28;20457;-58
2021/05/06 10:18:42;;;;;;;7.82;4.60;;;7.60;96.10;;;;;;5066247;28;20040;-56
2021/05/06 10:21:09;;;;;;;16.35;10.43;;;7.70;96.30;;;;;;5066345;28;20535;-57
2021/05/06 10:23:36;;;;;;;6.28;4.80;;;7.60;94.50;;;;;;5065793;28;20094;-57
2021/05/06 10:26:02;;;;;;;9.68;5.32;;;7.80;95.20;;;;;;5062632;28;20048;-54
2021/05/06 10:28:30;;;;;;;7.65;4.88;;;7.90;94.90;;;;;;5046510;28;20084;-59
2021/05/06 10:30:59;;;;;;;7.75;4.68;;;8.00;94.00;;;;;;5046472;28;20045;-58
2021/05/06 10:33:26;;;;;;;6.57;4.78;;;8.00;94.00;;;;;;5046550;28;20049;-60
2021/05/06 10:35:52;;;;;;;6.50;4.40;;;8.00;93.90;;;;;;5062294;28;20040;-58
2021/05/06 10:38:18;;;;;;;;;;;8.30;95.50;;;;;;5065402;28;20033;-59
2021/05/06 10:40:44;;;;;;;7.05;3.88;;;8.40;94.00;;;;;;5066780;28;20458;-60
2021/05/06 10:43:19;;;;;;;7.13;4.22;;;8.40;92.10;;;;;;5065939;28;20044;-58
2021/05/06 10:45:58;;;;;;;6.13;4.28;;;8.40;92.30;;;;;;5065781;28;20040;-55
2021/05/06 10:48:44;;;;;;;6.60;4.10;;;8.50;92.30;;;;;;5065125;28;20622;-59
2021/05/06 10:51:26;;;;;;;5.97;3.95;;;8.70;92.10;;;;;;5066017;28;20119;-60
2021/05/06 10:53:52;;;;;;;9.10;6.15;;;8.70;92.10;;;;;;5065083;28;20043;-62
2021/05/06 10:56:17;;;;;;;;;;;8.60;92.20;;;;;;5066786;28;20037;-59
2021/05/06 10:58:43;;;;;;;8.63;5.03;;;8.30;91.30;;;;;;5066695;28;19920;-63
2021/05/06 11:01:12;;;;;;;;;;;8.20;92.10;;;;;;5066368;28;20047;-62
2021/05/06 11:03:38;;;;;;;6.35;4.05;;;8.20;91.70;;;;;;5066570;28;19973;-61
2021/05/06 11:06:03;;;;;;;;;;;8.30;92.10;;;;;;5066875;28;20036;-58
2021/05/06 11:08:31;;;;;;;5.70;4.78;;;8.40;92.50;;;;;;5062210;28;20030;-58
2021/05/06 11:10:57;;;;;;;7.03;3.92;;;8.60;92.10;;;;;;5063758;28;20106;-61
2021/05/06 11:13:23;;;;;;;;;;;8.60;90.70;;;;;;5066480;28;20537;-59
2021/05/06 11:15:52;;;;;;;7.70;4.13;;;8.60;91.20;;;;;;5065581;28;19959;-59
2021/05/06 11:18:40;;;;;;;4.43;3.70;;;8.50;86.70;;;;;;5066216;28;20072;-59
2021/05/06 11:21:06;;;;;;;4.50;3.05;;;8.50;88.80;;;;;;5064018;28;20858;-55
2021/05/06 11:23:33;;;;;;;;;;;8.70;90.60;;;;;;5064872;28;20041;-58
2021/05/06 11:26:06;;;;;;;7.43;3.63;;;8.90;89.40;;;;;;5064942;28;19927;-58
2021/05/06 11:28:32;;;;;;;5.68;3.45;;;8.90;87.30;;;;;;5062583;28;20594;-60
2021/05/06 11:30:58;;;;;;;;;;;8.80;87.60;;;;;;5065909;28;20088;-58
2021/05/06 11:33:25;;;;;;;3.42;2.90;;;8.80;88.10;;;;;;5081134;28;20410;-56
2021/05/06 11:36:10;;;;;;;5.18;3.47;;;9.00;88.70;;;;;;5065916;28;20105;-56
2021/05/06 11:38:36;;;;;;;5.78;3.42;;;8.90;89.50;;;;;;5061574;28;20044;-53
2021/05/06 11:41:04;;;;;;;;;;;9.00;88.70;;;;;;5066404;28;20444;-60
2021/05/06 11:43:31;;;;;;;5.38;3.38;;;9.00;86.90;;;;;;5065433;28;20654;-60
2021/05/06 11:46:27;;;;;;;6.82;3.80;;;8.90;84.00;;;;;;5065507;28;20589;-59
2021/05/06 11:48:55;;;;;;;5.57;3.10;;;8.70;84.60;;;;;;5064151;28;20048;-56
2021/05/06 11:51:25;;;;;;;7.43;4.40;;;8.80;85.40;;;;;;5065132;28;20115;-56
2021/05/06 11:54:11;;;;;;;3.90;3.05;;;9.10;83.40;;;;;;5064848;28;20540;-59
2021/05/06 11:56:55;;;;;;;17.85;9.68;;;9.00;84.70;;;;;;5065780;28;20041;-59
2021/05/06 11:59:23;;;;;;;3.92;3.15;;;9.30;89.20;;;;;;5063178;28;20037;-58
2021/05/06 12:01:49;;;;;;;3.95;2.88;;;9.70;87.10;;;;;;5065624;28;20545;-57
2021/05/06 12:04:26;;;;;;;4.25;3.30;;;9.80;82.20;;;;;;5066043;28;20131;-58
2021/05/06 12:06:52;;;;;;;5.82;3.75;;;9.90;86.30;;;;;;5065972;28;20100;-60
2021/05/06 12:09:26;;;;;;;5.00;3.08;;;9.80;82.80;;;;;;5065202;28;20113;-56
2021/05/06 12:11:52;;;;;;;14.23;3.35;;;9.70;84.00;;;;;;5065724;28;20369;-60
2021/05/06 12:14:29;;;;;;;5.10;3.38;;;10.00;87.20;;;;;;5063102;28;20117;-58
2021/05/06 12:16:55;;;;;;;;;;;9.80;82.50;;;;;;5068301;28;20089;-59
2021/05/06 12:19:20;;;;;;;3.17;2.53;;;9.60;83.60;;;;;;5069201;28;19920;-55
2021/05/06 12:21:52;;;;;;;;;;;9.60;81.90;;;;;;5068209;28;20060;-59
2021/05/06 12:24:32;;;;;;;4.72;2.83;;;9.50;79.70;;;;;;5062680;28;19971;-60
2021/05/06 12:27:14;;;;;;;3.10;2.50;;;9.60;84.60;;;;;;5079129;28;20051;-58
2021/05/06 12:29:40;;;;;;;6.20;2.40;;;9.80;85.40;;;;;;5069903;28;20047;-61
2021/05/06 12:32:06;;;;;;;;;;;9.90;81.60;;;;;;5069103;28;20530;-58
2021/05/06 12:34:38;;;;;;;5.75;2.85;;;9.70;79.90;;;;;;5068834;28;19971;-60
2021/05/06 12:37:03;;;;;;;3.40;2.50;;;9.50;81.50;;;;;;5061451;28;20048;-59
2021/05/06 12:39:30;;;;;;;;;;;9.40;84.70;;;;;;5068726;28;20504;-56
2021/05/06 12:42:01;;;;;;;3.90;2.22;;;9.40;84.10;;;;;;5069630;28;19924;-56
2021/05/06 12:44:54;;;;;;;3.72;2.22;;;9.30;82.20;;;;;;5068499;28;20097;-60
2021/05/06 12:47:26;;;;;;;4.63;2.50;;;9.30;84.60;;;;;;5067921;28;20044;-56
2021/05/06 12:50:12;;;;;;;7.07;2.75;;;9.20;82.20;;;;;;5068320;28;20072;-61
2021/05/06 12:52:43;;;;;;;5.80;2.50;;;9.20;83.70;;;;;;5068393;28;20401;-58
2021/05/06 12:55:27;;;;;;;6.22;3.22;;;9.30;88.40;;;;;;5066947;28;20052;-60
2021/05/06 12:58:14;;;;;;;4.68;3.35;;;9.40;88.10;;;;;;5065989;28;20064;-61
2021/05/06 13:00:42;;;;;;;3.25;2.30;;;9.50;88.80;;;;;;5065804;28;20040;-59
2021/05/06 13:03:10;;;;;;;2.47;1.90;;;9.60;88.70;;;;;;5069581;28;20041;-59
2021/05/06 13:05:45;;;;;;;3.03;2.00;;;9.60;87.80;;;;;;5065796;28;20041;-60
2021/05/06 13:08:11;;;;;;;5.00;2.13;;;9.60;87.60;;;;;;5067987;28;20097;-60
2021/05/06 13:10:40;;;;;;;;;;;9.60;85.70;;;;;;5068823;28;20067;-60
2021/05/06 13:13:09;;;;;;;5.47;2.20;;;9.60;87.30;;;;;;5067944;28;19930;-59
2021/05/06 13:15:52;;;;;;;6.45;1.90;;;9.40;85.90;;;;;;5067617;28;20485;-55
2021/05/06 13:18:19;;;;;;;4.80;2.15;;;9.30;86.20;;;;;;5067836;28;20048;-59
2021/05/06 13:20:49;;;;;;;2.83;1.80;;;9.30;87.10;;;;;;5068102;28;20040;-60
2021/05/06 13:23:35;;;;;;;2.97;2.10;;;9.30;85.30;;;;;;5068514;28;20033;-60
2021/05/06 13:26:04;;;;;;;3.35;2.15;;;9.20;86.90;;;;;;5068428;28;20106;-61
2021/05/06 13:28:32;;;;;;;4.72;1.90;;;9.20;87.60;;;;;;5067060;28;20982;-59
2021/05/06 13:31:15;;;;;;;3.38;2.10;;;9.20;85.90;;;;;;5061144;28;20416;-63
2021/05/06 13:33:42;;;;;;;2.13;1.77;;;9.20;89.60;;;;;;5067675;28;20105;-59
2021/05/06 13:36:10;;;;;;;4.13;2.38;;;9.10;86.70;;;;;;5067998;28;20040;-59
2021/05/06 13:39:06;;;;;;;6.00;2.33;;;9.10;88.40;;;;;;5067519;28;20059;-59
2021/05/06 13:41:40;;;;;;;6.90;1.80;;;9.20;87.90;;;;;;5047822;28;20652;-59
2021/05/06 13:44:07;;;;;;;2.40;1.75;;;9.20;86.10;;;;;;5049877;28;20045;-54
2021/05/06 13:46:41;;;;;;;5.97;2.13;;;9.30;86.60;;;;;;5064421;28;20381;-59
2021/05/06 13:49:07;;;;;;;3.47;1.80;;;9.40;84.70;;;;;;5067373;28;20047;-59
2021/05/06 13:51:33;;;;;;;;;;;9.60;87.80;;;;;;5064692;28;20159;-61
2021/05/06 13:53:58;;;;;;;2.47;1.70;;;9.70;86.70;;;;;;5067439;28;19955;-60
2021/05/06 13:56:24;;;;;;;;;;;9.30;84.70;;;;;;5068742;28;20044;-60
2021/05/06 13:58:50;;;;;;;2.30;1.60;;;9.30;84.20;;;;;;5067386;28;19916;-60
2021/05/06 14:01:16;;;;;;;;;;;9.40;87.20;;;;;;5068185;28;20064;-60
2021/05/06 14:03:41;;;;;;;6.90;2.15;;;9.50;86.80;;;;;;5067906;28;19964;-59
2021/05/06 14:06:07;;;;;;;;;;;9.50;87.00;;;;;;5064809;28;20154;-60
2021/05/06 14:08:33;;;;;;;3.38;1.63;;;9.60;88.80;;;;;;5067725;28;19958;-60
2021/05/06 14:10:59;;;;;;;;;;;9.50;87.30;;;;;;5068862;28;20044;-58
2021/05/06 14:13:25;;;;;;;5.25;2.08;;;9.60;85.30;;;;;;5067990;28;19916;-58
2021/05/06 14:15:52;;;;;;;3.55;1.98;;;9.50;84.10;;;;;;5067145;28;20077;-61
2021/05/06 14:18:18;;;;;;;3.13;1.75;;;9.50;86.00;;;;;;5068215;28;20040;-58
2021/05/06 14:20:44;;;;;;;;;;;9.60;83.80;;;;;;5067241;28;20382;-59
2021/05/06 14:23:12;;;;;;;5.38;1.70;;;9.60;83.50;;;;;;5067585;28;19986;-58
2021/05/06 14:25:38;;;;;;;3.47;2.45;;;9.50;84.30;;;;;;5067613;28;20040;-58
2021/05/06 14:28:05;;;;;;;2.35;1.70;;;9.40;85.30;;;;;;5067026;28;20063;-58
2021/05/06 14:30:31;;;;;;;5.07;1.98;;;9.50;83.20;;;;;;5066830;28;20033;-59
2021/05/06 14:32:56;;;;;;;;;;;9.50;81.30;;;;;;5067870;28;20033;-59
2021/05/06 14:35:22;;;;;;;5.95;2.08;;;9.50;82.10;;;;;;5067209;28;19931;-56
2021/05/06 14:37:48;;;;;;;;;;;9.50;81.80;;;;;;5067049;28;20071;-52
2021/05/06 14:40:14;;;;;;;5.93;2.35;;;9.50;82.00;;;;;;5066578;28;19968;-59
2021/05/06 14:42:40;;;;;;;5.13;1.75;;;9.50;81.10;;;;;;5067630;28;20488;-57
2021/05/06 14:45:06;;;;;;;;;;;9.50;84.00;;;;;;5067136;28;20055;-59
2021/05/06 14:47:31;;;;;;;2.95;1.40;;;9.70;84.30;;;;;;5066462;28;19931;-58
2021/05/06 14:49:57;;;;;;;;;;;9.90;81.70;;;;;;5067304;28;20034;-57
2021/05/06 14:52:23;;;;;;;20.65;12.18;;;9.90;82.10;;;;;;5067022;28;19917;-56
2021/05/06 14:54:49;;;;;;;5.82;3.08;;;10.00;83.40;;;;;;5066980;28;20068;-59
2021/05/06 14:57:15;;;;;;;4.57;1.92;;;10.00;80.40;;;;;;5067687;28;20048;-58
2021/05/06 14:59:41;;;;;;;;;;;10.00;81.80;;;;;;5067483;28;20048;-59
2021/05/06 15:02:06;;;;;;;7.10;1.63;;;10.10;81.90;;;;;;5066066;28;19997;-56
2021/05/06 15:04:32;;;;;;;;;;;10.10;81.90;;;;;;5066509;28;20049;-58
2021/05/06 15:06:58;;;;;;;4.60;1.67;;;10.10;80.50;;;;;;5065072;28;20411;-59
2021/05/06 15:09:25;;;;;;;;;;;10.00;79.30;;;;;;5068095;28;20044;-59
2021/05/06 15:11:51;;;;;;;2.95;1.35;;;10.00;79.70;;;;;;5067218;28;20372;-59
2021/05/06 15:14:17;;;;;;;3.75;1.63;;;10.00;79.50;;;;;;5066536;28;20041;-57
2021/05/06 15:16:43;;;;;;;;;;;9.80;77.80;;;;;;5066052;28;20098;-59
2021/05/06 15:19:08;;;;;;;43.55;27.23;;;9.70;77.90;;;;;;5067361;28;19924;-58
2021/05/06 15:21:34;;;;;;;;;;;9.80;81.60;;;;;;5066458;28;20401;-58
2021/05/06 15:23:59;;;;;;;27.90;16.10;;;9.70;79.50;;;;;;5066212;28;20399;-57
2021/05/06 15:26:25;;;;;;;;;;;9.70;79.50;;;;;;5066823;28;20040;-59
2021/05/06 15:28:52;;;;;;;3.72;2.13;;;9.60;79.40;;;;;;5067017;28;19916;-58
2021/05/06 15:31:18;;;;;;;5.63;1.70;;;9.50;79.30;;;;;;5063572;28;20052;-59
2021/05/06 15:33:44;;;;;;;6.32;1.77;;;9.40;79.20;;;;;;5066440;28;20115;-58
2021/05/06 15:36:11;;;;;;;;;;;9.40;80.70;;;;;;5066749;28;20127;-57
2021/05/06 15:38:37;;;;;;;3.80;1.40;;;9.30;79.10;;;;;;5067264;28;20376;-56
2021/05/06 15:41:03;;;;;;;;;;;9.30;81.30;;;;;;5065559;28;20116;-55
2021/05/06 15:43:28;;;;;;;2.78;1.70;;;9.30;80.80;;;;;;5064157;28;19924;-59
2021/05/06 15:45:55;;;;;;;;;;;9.30;83.20;;;;;;5066636;28;20041;-57
2021/05/06 15:48:20;;;;;;;6.15;1.70;;;9.30;84.20;;;;;;5067862;28;19916;-57
2021/05/06 15:50:46;;;;;;;;;;;9.20;82.90;;;;;;5071511;28;20047;-57
2021/05/06 15:53:11;;;;;;;2.58;1.20;;;9.20;84.60;;;;;;5068497;28;19920;-57
2021/05/06 15:55:37;;;;;;;;;;;9.00;84.00;;;;;;5068177;28;20033;-59
2021/05/06 15:58:05;;;;;;;5.35;1.63;;;8.90;85.40;;;;;;5067919;28;19916;-59
2021/05/06 16:00:31;;;;;;;5.45;1.48;;;8.90;87.30;;;;;;5069813;28;20036;-58